Eddyville, KY

12:05 PM CDT on July 23, 2017 (GMT -0500)
The Ridge Eddycreek | | Change Station
Active Advisory: Heat Advisory

Elev 471 ft 37.02 °N, 88.01 °W | Updated 32 seconds ago

Clear
Clear
87.0 °F
Feels Like 93 °F
N
8.0
Wind Variable Wind from NE
Gusts 11.0 mph

Today
High -- | Low -- °F
--% Chance of Precip.
Yesterday
High -- | Low -- °F
Precip. -- in
Pressure 29.90 in
Visibility 10.0 miles
Clouds Clear
Heat Index 93 °F
Dew Point 72 °F
Humidity 61%
Rainfall 0.00 in
Snow Depth Not available.
5:50 AM 8:06 PM
New Moon, 0% visible
METAR K5M9 231655Z AUTO 08005KT 10SM CLR 31/21 A2990 RMK AO2 T03060207
Pressure 29.90 in
Visibility 10.0 miles
Clouds Clear
Heat Index 93 °F
Dew Point 72 °F
Humidity 61%
Rainfall 0.00 in
Snow Depth Not available.
5:50 AM 8:06 PM
New Moon, 0% visible
METAR K5M9 231655Z AUTO 08005KT 10SM CLR 31/21 A2990 RMK AO2 T03060207

Get Your Daily Forecast Email!

Thanks for signing up!

Be on the lookout for a verification email in your inbox.

You'll start receiving severe weather alerts in your inbox..

×

10-Day Weather Forecast

Almanac

Astronomy

Jul. 23, 2017 Rise Set
Actual Time
Civil Twilight
Nautical Twilight
Astronomical Twilight
Moon
Length of Visible Light
Length of Day
Tomorrow will be .
, % of the Moon is Illuminated

Today's Extremes

State Highs State Lows

Community

WunderPhotos

Category 6

Welcome to Category 6. This is the collective home for Weather Underground's featured writeups by Dr. Jeff Masters (right), Bob Henson (left), Chris Burt, and other regular contributors.

Nearby

Air Quality

  Air Quality AQ Index Pollutant
Not available.

Snow Depth

Station Depth Elevation

Earthquake Activity

City Distance Mag. Time & Date
Minimum magnitude displayed is 2.5.

Coastal Water Temperatures

Place Temperature

Stations

Nearby Weather Stations

Station Location Temp. Windchill Dew Point Humidity Wind Precip. Elev Updated Type
                   

Watches & Warnings

Heat Advisory
Issued: 12:01 PM CDT Jul. 23, 2017 – National Weather Service

... Excessive heat warning is cancelled...

The National Weather Service in Paducah has cancelled the
excessive heat warning.

The excessive heat warning has been cancelled for areas along and
north of a line from Cape Girardeau Missouri to Paducah and
Madisonville Kentucky. Thunderstorms early this morning brought
lower temperatures and humidity. Peak heat indices this afternoon
are forecast to be mainly 100 degrees or lower.